Flight Track Log - Related Links

Times and Time Zones

All times are in EDT time to prevent confusion due to time zone crossing. See the N278KP flight status page for this flight to view local times or setup timezone preferences in your user account.

Time Position Orientation Groundspeed Altitude Reporting Facility
EDT Latitude Longitude Course Direction KTS MPH feet Rate Location/Type
Fri 10:12:18 PM 39.5970 -107.0240 269° West 224 258 10,700  Level FlightAware
Fri 10:12:38 PM 39.6020 -107.0490 285° West 227 261 11,700 3,000 Climbing FlightAware
Fri 10:12:58 PM 39.6200 -107.0660 324° Northwest 240 276 12,700 3,200 Climbing FlightAware
Fri 10:13:08 PM 39.6300 -107.0690 347° North 242 278 13,300 3,200 Climbing FlightAware
Fri 10:13:28 PM 39.6540 -107.0660 North 243 280 14,300 3,120 Climbing FlightAware
Fri 10:14:23 PM 39.7150 -107.0660 360° North 240 276 17,200 2,842 Climbing FlightAware
Fri 10:15:03 PM 39.7600 -107.0780 348° North 266 306 18,800 2,400 Climbing FlightAware
Fri 10:15:13 PM 39.7730 -107.0750 10° North 273 314 19,200 2,087 Climbing FlightAware
Fri 10:15:26 PM 39.7820 -107.0690 27° Northeast 279 321 19,600 1,778 Climbing FlightAware
Fri 10:16:07 PM 39.8070 -107.0160 58° Northeast 308 354 20,800 1,600 Climbing FlightAware
Fri 10:16:56 PM 39.8380 -106.9050 70° East 357 411 22,000 1,416 Climbing FlightAware
Fri 10:17:36 PM 39.8630 -106.8300 67° East 371 427 22,900 1,429 Climbing FlightAware
Fri 10:18:20 PM 39.8970 -106.7370 64° Northeast 378 435 24,000 1,500 Climbing FlightAware
Fri 10:19:00 PM 39.9280 -106.6530 64° Northeast 384 442 25,000 1,395 Climbing FlightAware
Fri 10:19:46 PM 39.9630 -106.5550 65° Northeast 392 451 26,000 645 Climbing FlightAware
Fri 10:20:33 PM 39.9756 -106.4430 82° East 404 465 26,000 673 Level FlightAware
Fri 10:21:24 PM 39.9530 -106.3230 104° East 393 452 27,100 1,368 Climbing FlightAware
Fri 10:21:30 PM 39.9499 -106.3090 106° East 391 450 27,300 1,565 Climbing FlightAware
Fri 10:22:10 PM 39.9331 -106.2190 104° East 382 440 28,300 1,457 Climbing FlightAware
Fri 10:22:40 PM 39.9210 -106.1530 103° East 379 436 29,000 1,459 Climbing FlightAware
Fri 10:23:24 PM 39.9026 -106.0540 104° East 381 438 30,100 1,440 Climbing FlightAware
Fri 10:23:55 PM 39.8901 -105.9870 104° East 381 438 30,800 1,379 Climbing FlightAware
Fri 10:24:51 PM 39.8673 -105.8640 104° East 380 437 32,100 1,416 Climbing FlightAware
Fri 10:25:24 PM 39.8539 -105.7920 104° East 377 434 32,900 1,333 Climbing FlightAware
Fri 10:25:54 PM 39.8412 -105.7240 104° East 380 437 33,500 1,161 Climbing FlightAware
Fri 10:26:26 PM 39.8282 -105.6550 104° East 376 433 34,100 1,258 Climbing FlightAware
Fri 10:26:56 PM 39.8157 -105.5880 104° East 375 432 34,800 1,258 Climbing FlightAware
Fri 10:27:28 PM 39.8027 -105.5190 104° East 372 428 35,400 1,143 Climbing FlightAware
Fri 10:27:59 PM 39.7900 -105.4520 104° East 370 426 36,000 1,161 Climbing FlightAware
Fri 10:28:30 PM 39.7771 -105.3850 104° East 372 428 36,600 1,065 Climbing FlightAware
Fri 10:29:01 PM 39.7645 -105.3190 104° East 371 427 37,100 1,048 Climbing FlightAware
Fri 10:29:33 PM 39.7512 -105.2490 104° East 372 428 37,700 1,125 Climbing FlightAware
Fri 10:30:05 PM 39.7381 -105.1800 104° East 370 426 38,300 1,065 Climbing FlightAware
Fri 10:30:35 PM 39.7256 -105.1150 104° East 369 425 38,800 636 Climbing FlightAware
Fri 10:31:11 PM 39.7103 -105.0370 104° East 383 441 39,000 167 Climbing FlightAware
Fri 10:31:47 PM 39.6944 -104.9550 104° East 398 458 39,000  Level FlightAware
Fri 10:32:18 PM 39.6805 -104.8830 104° East 407 468 39,000  Level FlightAware
Fri 10:32:48 PM 39.6663 -104.8110 104° East 415 478 39,000  Level FlightAware
Fri 10:33:21 PM 39.6506 -104.7310 104° East 421 484 39,000  Level FlightAware
Fri 10:33:51 PM 39.6360 -104.6570 104° East 424 488 39,000  Level FlightAware
Fri 10:34:22 PM 39.6212 -104.5820 104° East 426 490 39,000  Level FlightAware
Fri 10:34:52 PM 39.6064 -104.5070 104° East 428 493 39,000  Level FlightAware
Fri 10:35:23 PM 39.5909 -104.4290 104° East 430 495 39,000  Level FlightAware
Fri 10:35:54 PM 39.5758 -104.3540 105° East 431 496 39,000  Level FlightAware
Fri 10:36:24 PM 39.5607 -104.2780 104° East 431 496 39,000  Level FlightAware
Fri 10:36:55 PM 39.5452 -104.2020 105° East 432 497 39,000  Level FlightAware
Fri 10:37:25 PM 39.5298 -104.1250 105° East 432 497 39,000  Level FlightAware
Fri 10:37:56 PM 39.5141 -104.0480 105° East 432 497 39,000  Level FlightAware
Fri 10:38:27 PM 39.4984 -103.9710 105° East 432 497 39,000  Level FlightAware
Fri 10:38:57 PM 39.4830 -103.8960 105° East 425 489 39,000  Level FlightAware
Fri 10:39:30 PM 39.4666 -103.8160 105° East 417 480 39,000  Level FlightAware
Fri 10:40:01 PM 39.4515 -103.7430 105° East 412 474 39,000  Level FlightAware
Fri 10:40:31 PM 39.4368 -103.6710 105° East 408 470 39,000  Level FlightAware
Fri 10:41:02 PM 39.4218 -103.5990 105° East 405 466 39,000  Level FlightAware
Fri 10:41:33 PM 39.4069 -103.5270 105° East 404 465 39,000  Level FlightAware
Fri 10:42:03 PM 39.3923 -103.4570 105° East 404 465 39,000  Level FlightAware
Fri 10:42:33 PM 39.3775 -103.3870 105° East 405 466 39,000 98 Level FlightAware
Fri 10:43:04 PM 39.3622 -103.3140 105° East 412 474 39,100 787 Climbing FlightAware
Fri 10:43:34 PM 39.3474 -103.2440 105° East 402 463 39,800 1,377 Climbing FlightAware
Fri 10:44:05 PM 39.3327 -103.1750 105° East 393 452 40,500 1,161 Climbing FlightAware
Fri 10:44:36 PM 39.3179 -103.1050 105° East 395 455 41,000 492 Climbing FlightAware
Fri 10:45:06 PM 39.3032 -103.0360 105° East 409 471 41,000  Level FlightAware
Fri 10:45:36 PM 39.2879 -102.9640 105° East 421 484 41,000  Level FlightAware
Fri 10:46:06 PM 39.2721 -102.8900 105° East 428 493 41,000  Level FlightAware
Fri 10:46:37 PM 39.2557 -102.8140 106° East 437 503 41,000  Level FlightAware
Fri 10:47:07 PM 39.2391 -102.7370 106° East 442 509 41,000  Level FlightAware
Fri 10:47:38 PM 39.2219 -102.6580 106° East 446 513 41,000  Level FlightAware
Fri 10:48:09 PM 39.2048 -102.5790 106° East 450 518 41,000  Level FlightAware
Fri 10:48:40 PM 39.1872 -102.4980 106° East 451 519 41,000  Level FlightAware
Fri 10:49:11 PM 39.1702 -102.4200 106° East 453 521 41,000  Level FlightAware
Fri 10:49:41 PM 39.1527 -102.3410 106° East 454 522 41,000  Level FlightAware
Fri 10:50:12 PM 39.1350 -102.2610 106° East 455 524 41,000  Level FlightAware
Fri 10:50:44 PM 39.1167 -102.1780 106° East 456 525 41,000  Level FlightAware
Fri 10:51:14 PM 39.0994 -102.1000 106° East 457 526 41,000  Level FlightAware
Fri 10:51:44 PM 39.0816 -102.0200 106° East 454 522 41,000  Level FlightAware
Fri 10:52:15 PM 39.0640 -101.9420 106° East 449 517 41,000  Level FlightAware
Fri 10:52:48 PM 39.0453 -101.8580 106° East 445 512 41,000  Level FlightAware
Fri 10:53:19 PM 39.0273 -101.7790 106° East 443 510 41,000  Level FlightAware
Fri 10:53:50 PM 39.0098 -101.7010 106° East 442 509 41,000  Level FlightAware
Fri 10:54:20 PM 38.9927 -101.6250 106° East 441 507 41,000  Level FlightAware
Fri 10:54:50 PM 38.9753 -101.5490 106° East 441 507 41,000  Level FlightAware
Fri 10:55:20 PM 38.9581 -101.4740 106° East 439 505 41,000  Level FlightAware
Fri 10:55:51 PM 38.9404 -101.3970 106° East 439 505 41,000  Level FlightAware
Fri 10:56:23 PM 38.9221 -101.3170 106° East 438 504 41,000  Level FlightAware
Fri 10:56:58 PM 38.9025 -101.2320 106° East 435 501 41,000  Level FlightAware
Fri 10:57:29 PM 38.8850 -101.1560 106° East 433 498 41,000  Level FlightAware
Fri 10:57:32 PM 38.8828 -101.1470 107° East 432 497 41,000  Level FlightAware
Fri 10:58:01 PM 38.8667 -101.0780 107° East 431 496 41,000  Level FlightAware
Fri 10:58:03 PM 38.8652 -101.0720 108° East 431 496 41,000  Level FlightAware
Fri 10:58:51 PM 38.8379 -100.9540 107° East 431 496 41,000  Level FlightAware
Fri 10:59:37 PM 38.8118 -100.8430 107° East 431 496 41,000  Level FlightAware
Fri 11:00:37 PM 38.7773 -100.6960 107° East 432 497 41,000  Level FlightAware
Fri 11:00:55 PM 38.7667 -100.6520 107° East 433 498 41,000  Level FlightAware
Fri 11:02:01 PM 38.7330 -100.4890 105° East 435 501 41,000  Level FlightAware
Fri 11:02:31 PM 38.7170 -100.4130 105° East 436 502 41,000  Level FlightAware
Fri 11:03:03 PM 38.7002 -100.3330 105° East 435 501 41,000  Level FlightAware
Fri 11:03:39 PM 38.6814 -100.2430 105° East 433 498 41,000 -326 Level FlightAware
Fri 11:04:35 PM 38.6523 -100.1060 105° East 442 509 40,500 -1,043 Descending FlightAware
Fri 11:05:11 PM 38.6329 -100.0140 105° East 437 503 39,400 -1,525 Descending FlightAware
Fri 11:05:34 PM 38.6261 -99.9850 105° East 440 506 39,000 -1,553 Descending Denver Center
Fri 11:06:36 PM 38.5917 -99.8275 106° East 418 481 37,200 -1,707 Descending Denver Center
Fri 11:07:37 PM 38.5639 -99.6992 105° East 401 461 35,500 -1,951 Descending Denver Center
Fri 11:08:39 PM 38.5244 -99.5547 109° East 389 448 33,200 -2,063 Descending Denver Center
Fri 11:09:45 PM 38.4753 -99.4192 115° Southeast 390 449 31,100 -2,138 Descending Kansas Center
Fri 11:14:55 PM 38.2670 -98.7620 115° Southeast 309 356 19,800 -1,889 Descending FlightAware
Fri 11:15:44 PM 38.2580 -98.6870 99° East 309 356 19,800  Level FlightAware
Fri 11:16:20 PM 38.2520 -98.6320 98° East 309 356 19,800 -2,679 Level FlightAware
Fri 11:17:36 PM 38.2290 -98.4920 102° East 302 348 14,800 -2,679 Descending FlightAware
Fri 11:18:12 PM 38.2180 -98.4390 105° East 302 348 14,800  Level FlightAware
Fri 11:18:58 PM 38.2050 -98.3710 104° East 302 348 14,800 -3,600 Level FlightAware
Fri 11:19:47 PM 38.1820 -98.2690 106° East 272 313 9,100 -3,466 Descending FlightAware
Fri 11:20:54 PM 38.1690 -98.1910 102° East 266 306 8,100 -652 Descending FlightAware
Fri 11:21:19 PM 38.1640 -98.1580 101° East 266 306 8,100  Level FlightAware
Fri 11:21:43 PM 38.1580 -98.1270 104° East 266 306 8,100  Level FlightAware
Fri 11:22:07 PM 38.1530 -98.0960 102° East 266 306 8,100 -3,308 Level FlightAware
Fri 11:23:01 PM 38.1603 -97.9972 102° East 225 259 3,800 -2,474 Descending Kansas Center
Fri 11:24:01 PM 38.1586 -97.9353 92° East 180 207 3,400 -446 Descending Kansas Center
Fri 11:25:02 PM 38.1486 -97.8797 103° East 168 193 2,900 -443 Descending Kansas Center
Fri 11:26:03 PM 38.1208 -97.8653 158° South 131 151 2,500 -432 Descending Kansas Center
Fri 11:27:07 PM 38.0917 -97.8644 179° South 113 130 2,000 -435 Descending Kansas Center
Fri 11:28:07 PM 38.0622 -97.8628 177° South 105 121 1,600 -400 Descending Kansas Center

Login

Don't have an account? Register now (free) for customized features, flight alerts, and more!